Time;durP1;ratioP1;P1;durP2;ratioP2;P2;SDS_P1;SDS_P2;PMS_P1;PMS_P2;Temp;Humidity;BMP_temperature;BMP_pressure;BME280_temperature;BME280_humidity;BME280_pressure;Samples;Min_cycle;Max_cycle;Signal;HPM_P1;HPM_P2
2022/04/15 00:00:27;;;;;;;0.80;0.63;;;;;;;13.14;62.24;102623.78;5047498;28;20017;-78
2022/04/15 00:02:54;;;;;;;0.85;0.85;;;;;;;13.13;61.34;102619.34;5042139;28;20069;-78
2022/04/15 00:05:52;;;;;;;0.10;0.10;;;;;;;13.13;61.98;102627.31;5047688;28;20033;-80
2022/04/15 00:08:09;;;;;;;0.10;0.10;;;;;;;13.13;61.97;102622.88;5052062;28;20509;-79
2022/04/15 00:10:35;;;;;;;0.10;0.10;;;;;;;13.11;61.20;102635.31;5046057;28;20038;-78
2022/04/15 00:13:03;;;;;;;0.10;0.10;;;;;;;13.10;62.14;102629.09;5041720;28;20083;-79
2022/04/15 00:15:30;;;;;;;0.15;0.15;;;;;;;13.10;61.06;102630.88;5046362;28;20033;-79
2022/04/15 00:17:56;;;;;;;0.20;0.20;;;;;;;13.09;60.96;102634.41;5038741;28;20052;-79
2022/04/15 00:20:22;;;;;;;0.03;0.03;;;;;;;13.07;62.29;102628.19;5045353;28;20049;-79
2022/04/15 00:22:50;;;;;;;0.08;0.08;;;;;;;13.06;61.40;102637.06;5045511;28;20071;-79
2022/04/15 00:25:16;;;;;;;0.20;0.20;;;;;;;13.01;63.01;102633.53;5043729;28;20063;-79
2022/04/15 00:27:42;;;;;;;0.10;0.10;;;;;;;12.96;62.94;102633.56;5045451;28;20040;-79
2022/04/15 00:30:10;;;;;;;1.50;1.50;;;;;;;12.89;63.12;102635.31;5050620;28;20029;-79
2022/04/15 00:32:37;;;;;;;0.50;0.40;;;;;;;12.84;62.97;102641.56;5042657;28;20026;-78
2022/04/15 00:35:04;;;;;;;0.85;0.85;;;;;;;12.77;62.60;102643.31;5042804;28;20044;-79
2022/04/15 00:37:31;;;;;;;0.00;0.00;;;;;;;12.73;63.28;102642.41;5038737;28;20025;-79
2022/04/15 00:39:57;;;;;;;0.10;0.10;;;;;;;12.73;63.07;102644.22;5042516;28;20037;-78
2022/04/15 00:42:24;;;;;;;0.95;0.93;;;;;;;12.74;62.67;102641.53;5047422;28;20033;-79
2022/04/15 00:44:59;;;;;;;0.45;0.45;;;;;;;12.81;62.84;102642.44;5042494;28;20049;-78
2022/04/15 00:50:04;;;;;;;0.65;0.65;;;;;;;12.77;62.72;102652.19;5084231;28;20391;-78
2022/04/15 00:52:35;;;;;;;0.10;0.10;;;;;;;12.78;63.32;102646.00;5063969;28;20713;-77
2022/04/15 00:55:04;;;;;;;0.55;0.55;;;;;;;12.79;63.00;102649.53;5056810;28;20372;-77
2022/04/15 00:57:33;;;;;;;1.95;0.77;;;;;;;12.80;61.77;102651.31;5067388;28;20044;-76
2022/04/15 01:00:03;;;;;;;1.40;1.40;;;;;;;12.85;62.78;102651.31;5074876;28;20075;-78
2022/04/15 01:02:29;;;;;;;0.10;0.10;;;;;;;12.90;62.51;102657.50;5064128;28;20029;-78
2022/04/15 01:04:56;;;;;;;1.48;1.38;;;;;;;12.93;63.63;102658.41;5062484;28;20044;-78
2022/04/15 01:07:25;;;;;;;0.73;0.73;;;;;;;12.93;63.72;102647.75;5060116;28;20048;-77
2022/04/15 01:09:53;;;;;;;1.35;0.73;;;;;;;13.00;63.08;102658.41;5060964;28;20025;-78
2022/04/15 01:12:22;;;;;;;0.57;0.35;;;;;;;13.01;63.16;102654.81;5067285;28;20044;-78
2022/04/15 01:14:49;;;;;;;0.70;0.70;;;;;;;13.02;63.08;102651.28;5065080;28;20025;-76
2022/04/15 01:17:16;;;;;;;0.63;0.63;;;;;;;13.04;63.70;102649.50;5067466;28;20037;-77
2022/04/15 01:19:42;;;;;;;0.32;0.32;;;;;;;13.07;62.68;102649.50;5066884;28;20037;-77
2022/04/15 01:22:14;;;;;;;0.30;0.30;;;;;;;13.08;61.86;102656.59;5072499;28;20047;-78
2022/04/15 01:24:40;;;;;;;0.10;0.10;;;;;;;13.03;64.02;102653.06;5070858;28;20743;-78
2022/04/15 01:27:08;;;;;;;1.83;1.15;;;;;;;13.06;64.01;102658.34;5064696;28;20486;-78
2022/04/15 01:29:38;;;;;;;0.10;0.10;;;;;;;13.13;62.52;102664.56;5064640;28;20041;-78
2022/04/15 01:32:07;;;;;;;0.10;0.10;;;;;;;13.13;63.70;102665.44;5062399;28;20048;-78
2022/04/15 01:34:34;;;;;;;0.30;0.30;;;;;;;13.16;64.57;102664.56;5067480;28;20028;-78
2022/04/15 01:37:01;;;;;;;0.20;0.20;;;;;;;13.20;63.59;102656.56;5064423;28;20361;-79
2022/04/15 01:39:29;;;;;;;0.10;0.10;;;;;;;13.26;64.08;102656.56;5077076;28;20052;-78
2022/04/15 01:41:55;;;;;;;0.20;0.20;;;;;;;13.26;64.15;102655.69;5056809;28;20076;-77
2022/04/15 01:44:21;;;;;;;0.70;0.70;;;;;;;13.27;63.73;102661.00;5063989;28;20090;-77
2022/04/15 01:46:47;;;;;;;0.70;0.70;;;;;;;13.31;64.45;102658.31;5057457;28;20037;-78
2022/04/15 01:49:13;;;;;;;0.43;0.43;;;;;;;13.37;63.42;102658.31;5063467;28;20029;-77
2022/04/15 01:51:40;;;;;;;0.20;0.20;;;;;;;13.36;64.11;102661.88;5054547;28;20048;-78
2022/04/15 01:54:06;;;;;;;0.30;0.30;;;;;;;13.36;64.39;102660.09;5063808;28;20032;-78
2022/04/15 01:56:32;;;;;;;2.35;1.38;;;;;;;13.35;64.10;102670.75;5057612;28;20041;-78
2022/04/15 01:58:58;;;;;;;0.10;0.10;;;;;;;13.36;64.25;102667.22;5065435;28;20088;-78
2022/04/15 02:01:24;;;;;;;0.03;0.03;;;;;;;13.35;65.00;102676.06;5049716;28;20044;-77
2022/04/15 02:03:50;;;;;;;0.30;0.30;;;;;;;13.38;63.71;102678.75;5052813;28;20040;-78
2022/04/15 02:06:17;;;;;;;0.00;0.00;;;;;;;13.35;64.88;102681.41;5040775;28;20033;-78
2022/04/15 02:08:43;;;;;;;0.00;0.00;;;;;;;13.42;63.82;102680.50;5039572;28;20045;-78
2022/04/15 02:11:09;;;;;;;0.10;0.10;;;;;;;13.40;63.45;102684.97;5047715;28;20083;-77
2022/04/15 02:13:35;;;;;;;0.30;0.30;;;;;;;13.40;63.93;102684.97;5049170;28;20037;-77
2022/04/15 02:16:01;;;;;;;0.30;0.30;;;;;;;13.41;64.07;102689.41;5045308;28;20462;-78
2022/04/15 02:18:27;;;;;;;0.00;0.00;;;;;;;13.39;63.76;102684.06;5045879;28;20022;-78
2022/04/15 02:20:54;;;;;;;0.10;0.10;;;;;;;13.39;64.20;102693.84;5047765;28;20041;-78
2022/04/15 02:23:20;;;;;;;0.10;0.10;;;;;;;13.43;63.73;102690.28;5046188;28;20048;-78
2022/04/15 02:25:46;;;;;;;0.05;0.05;;;;;;;13.42;63.69;102689.41;5042547;28;20044;-78
2022/04/15 02:28:12;;;;;;;0.43;0.43;;;;;;;13.39;64.04;102686.72;5048655;28;20037;-77
2022/04/15 02:30:38;;;;;;;0.20;0.20;;;;;;;13.43;63.58;102684.94;5048574;28;20064;-77
2022/04/15 02:33:04;;;;;;;0.00;0.00;;;;;;;13.37;63.62;102695.56;5045789;28;20033;-77
2022/04/15 02:35:30;;;;;;;1.00;1.00;;;;;;;13.45;63.09;102693.81;5045134;28;20029;-78
2022/04/15 02:37:57;;;;;;;0.32;0.32;;;;;;;13.45;63.29;102693.81;5048968;28;20104;-77
2022/04/15 02:40:23;;;;;;;0.30;0.30;;;;;;;13.42;63.73;102701.81;5043797;28;20080;-77
2022/04/15 02:42:49;;;;;;;0.10;0.10;;;;;;;13.41;63.45;102697.41;5045214;28;20510;-78
2022/04/15 02:45:15;;;;;;;0.08;0.08;;;;;;;13.39;63.13;102699.16;5047635;28;20037;-77
2022/04/15 02:47:41;;;;;;;0.00;0.00;;;;;;;13.32;63.62;102697.38;5044112;28;20099;-78
2022/04/15 02:50:08;;;;;;;0.40;0.40;;;;;;;13.31;63.04;102703.56;5037422;28;20044;-78
2022/04/15 02:52:35;;;;;;;0.20;0.20;;;;;;;13.31;63.82;102696.50;5046044;28;20051;-78
2022/04/15 02:55:01;;;;;;;0.10;0.10;;;;;;;13.36;63.43;102705.34;5047066;28;20033;-78
2022/04/15 02:57:27;;;;;;;0.00;0.00;;;;;;;13.40;63.22;102708.94;5049853;28;20037;-78
2022/04/15 02:59:53;;;;;;;1.70;1.60;;;;;;;13.43;63.30;102703.59;5041835;28;20048;-77
2022/04/15 03:02:19;;;;;;;0.10;0.10;;;;;;;13.45;62.89;102704.47;5035807;28;20025;-77
2022/04/15 03:04:46;;;;;;;0.00;0.00;;;;;;;13.43;63.22;102701.81;5043029;28;20101;-78
2022/04/15 03:07:12;;;;;;;1.48;0.30;;;;;;;13.47;62.81;102713.38;5041174;28;20037;-78
2022/04/15 03:09:38;;;;;;;1.75;1.65;;;;;;;13.35;62.82;102710.69;5047165;28;20030;-79
2022/04/15 03:12:04;;;;;;;0.10;0.10;;;;;;;13.32;62.67;102708.91;5045593;28;20050;-78
2022/04/15 03:14:31;;;;;;;0.20;0.20;;;;;;;13.30;63.35;102712.47;5041070;28;20098;-77
2022/04/15 03:16:57;;;;;;;0.00;0.00;;;;;;;13.29;63.23;102716.03;5033341;28;20121;-77
2022/04/15 03:19:23;;;;;;;0.28;0.28;;;;;;;13.31;63.22;102716.88;5037127;28;20029;-76
2022/04/15 03:21:49;;;;;;;0.03;0.03;;;;;;;13.31;62.85;102723.13;5043863;28;20115;-77
2022/04/15 03:24:15;;;;;;;0.08;0.08;;;;;;;13.32;63.07;102723.97;5036914;28;20025;-78
2022/04/15 03:26:41;;;;;;;0.10;0.10;;;;;;;13.33;63.23;102728.44;5046783;28;20037;-77
2022/04/15 03:29:07;;;;;;;0.00;0.00;;;;;;;13.31;63.66;102727.53;5068686;22;20031;-75
2022/04/15 03:31:33;;;;;;;0.20;0.20;;;;;;;13.33;63.45;102729.31;5019902;28;20129;-74
2022/04/15 03:33:59;;;;;;;1.75;0.38;;;;;;;13.30;62.90;102733.78;5010008;28;20041;-75
2022/04/15 03:36:26;;;;;;;1.48;0.52;;;;;;;13.29;63.35;102734.66;5005148;28;20029;-74
2022/04/15 03:38:52;;;;;;;0.10;0.10;;;;;;;13.25;62.62;102734.63;5002176;28;20381;-74
2022/04/15 03:41:18;;;;;;;0.20;0.20;;;;;;;13.25;62.59;102734.63;5005246;28;20087;-74
2022/04/15 03:43:44;;;;;;;0.20;0.20;;;;;;;13.20;63.04;102744.41;5002731;28;20428;-73
2022/04/15 03:46:10;;;;;;;0.30;0.30;;;;;;;13.19;63.36;102739.09;5009158;28;20034;-74
2022/04/15 03:48:36;;;;;;;0.10;0.10;;;;;;;13.23;62.75;102746.19;5004190;28;20488;-73
2022/04/15 03:51:02;;;;;;;0.00;0.00;;;;;;;13.26;62.20;102747.06;5007585;28;20103;-74
2022/04/15 03:53:30;;;;;;;0.50;0.50;;;;;;;13.23;62.96;102744.44;5005573;28;20030;-74
2022/04/15 03:55:56;;;;;;;0.10;0.10;;;;;;;13.26;62.24;102740.88;5011430;28;20654;-74
2022/04/15 03:58:22;;;;;;;0.00;0.00;;;;;;;13.25;62.31;102747.94;5021710;28;20054;-75
2022/04/15 04:00:48;;;;;;;0.05;0.05;;;;;;;13.24;62.57;102754.16;5011583;28;20033;-74
2022/04/15 04:03:15;;;;;;;0.20;0.20;;;;;;;13.24;62.64;102751.50;5004454;28;20092;-74
2022/04/15 04:05:42;;;;;;;0.10;0.10;;;;;;;13.20;62.98;102755.06;5011805;28;20037;-74
2022/04/15 04:08:08;;;;;;;0.00;0.00;;;;;;;13.14;62.56;102747.06;5002815;28;20084;-74
2022/04/15 04:10:34;;;;;;;0.20;0.20;;;;;;;13.19;62.29;102750.63;5009669;28;20038;-74
2022/04/15 04:13:02;;;;;;;0.10;0.10;;;;;;;13.12;63.25;102754.16;5001803;28;20092;-74
2022/04/15 04:15:30;;;;;;;0.00;0.00;;;;;;;13.13;62.77;102753.28;4998413;28;20407;-74
2022/04/15 04:17:56;;;;;;;0.05;0.05;;;;;;;13.12;63.14;102748.84;5004514;28;20022;-74
2022/04/15 04:20:22;;;;;;;0.47;0.47;;;;;;;13.16;63.18;102750.63;5001227;28;20088;-75
2022/04/15 04:22:49;;;;;;;0.08;0.08;;;;;;;13.17;63.05;102756.81;5001003;28;20040;-74
2022/04/15 04:25:15;;;;;;;0.00;0.00;;;;;;;13.17;63.62;102757.72;5002747;28;20034;-75
2022/04/15 04:27:43;;;;;;;0.00;0.00;;;;;;;13.19;63.31;102763.91;5008466;28;20061;-74
2022/04/15 04:30:12;;;;;;;0.05;0.05;;;;;;;13.20;63.02;102755.06;5003249;28;20034;-73
2022/04/15 04:32:39;;;;;;;0.10;0.10;;;;;;;13.19;63.18;102755.06;4999925;28;20103;-74
2022/04/15 04:35:08;;;;;;;0.10;0.10;;;;;;;13.19;63.72;102760.38;4998857;28;20046;-74
2022/04/15 04:37:34;;;;;;;0.25;0.25;;;;;;;13.23;63.06;102752.41;5005344;28;20034;-73
2022/04/15 04:40:01;;;;;;;0.30;0.30;;;;;;;13.22;63.70;102758.63;5013027;28;20128;-73
2022/04/15 04:42:28;;;;;;;0.10;0.10;;;;;;;13.23;63.98;102763.06;5019589;28;20057;-73
2022/04/15 04:44:55;;;;;;;0.10;0.10;;;;;;;13.27;63.33;102764.81;5008926;28;20033;-74
2022/04/15 04:47:21;;;;;;;0.00;0.00;;;;;;;13.31;63.60;102767.47;5008714;28;20169;-74
2022/04/15 04:49:48;;;;;;;0.52;0.52;;;;;;;13.30;63.15;102771.03;5007712;28;20025;-74
2022/04/15 04:52:14;;;;;;;0.10;0.10;;;;;;;13.26;63.04;102765.69;5009211;28;20041;-74
2022/04/15 04:54:40;;;;;;;0.25;0.25;;;;;;;13.30;63.44;102771.03;5001684;28;20653;-74
2022/04/15 04:57:06;;;;;;;0.00;0.00;;;;;;;13.35;62.82;102771.91;5003234;28;20033;-74
2022/04/15 04:59:33;;;;;;;0.00;0.00;;;;;;;13.36;63.20;102771.03;5004922;28;20483;-74
2022/04/15 05:02:00;;;;;;;0.47;0.47;;;;;;;13.37;62.87;102771.06;5006940;28;20034;-74
2022/04/15 05:04:26;;;;;;;0.00;0.00;;;;;;;13.43;62.88;102770.16;5003839;28;20044;-74
2022/04/15 05:06:52;;;;;;;0.00;0.00;;;;;;;13.45;63.15;102773.72;5010105;28;20034;-74
2022/04/15 05:09:19;;;;;;;0.10;0.10;;;;;;;13.43;63.16;102780.81;4993624;28;20034;-74
2022/04/15 05:11:45;;;;;;;0.35;0.35;;;;;;;13.37;62.70;102786.09;5001371;28;20109;-74
2022/04/15 05:14:11;;;;;;;0.10;0.10;;;;;;;13.43;62.16;102786.13;5001792;28;20037;-74
2022/04/15 05:16:37;;;;;;;0.08;0.08;;;;;;;13.40;62.88;102791.47;5005350;28;20033;-74
2022/04/15 05:19:03;;;;;;;0.52;0.52;;;;;;;13.41;62.61;102796.78;5012551;28;20051;-74
2022/04/15 05:21:29;;;;;;;0.00;0.00;;;;;;;13.45;62.25;102800.34;5003688;28;20023;-74
2022/04/15 05:23:55;;;;;;;0.15;0.15;;;;;;;13.47;62.16;102795.91;5004665;28;20087;-74
2022/04/15 05:26:21;;;;;;;0.00;0.00;;;;;;;13.46;62.54;102802.13;5001257;28;20038;-73
2022/04/15 05:28:47;;;;;;;0.10;0.10;;;;;;;13.49;62.44;102811.88;5005265;28;20052;-74
2022/04/15 05:31:13;;;;;;;0.40;0.40;;;;;;;13.49;61.88;102817.22;5006400;28;20038;-74
2022/04/15 05:33:39;;;;;;;0.03;0.03;;;;;;;13.50;62.17;102824.31;5010165;28;20459;-75
2022/04/15 05:36:06;;;;;;;0.10;0.10;;;;;;;13.52;61.57;102823.41;5011447;28;20045;-76
2022/04/15 05:38:32;;;;;;;0.10;0.10;;;;;;;13.51;62.03;102826.97;5014214;28;20053;-77
2022/04/15 05:40:58;;;;;;;0.00;0.00;;;;;;;13.54;61.75;102832.28;5013267;28;20559;-75
2022/04/15 05:43:24;;;;;;;0.45;0.25;;;;;;;13.52;61.55;102836.75;5015015;28;20033;-74
2022/04/15 05:45:50;;;;;;;0.10;0.10;;;;;;;13.52;61.24;102827.84;5011421;28;20419;-75
2022/04/15 05:48:16;;;;;;;0.10;0.10;;;;;;;13.51;61.25;102832.28;5006176;28;20459;-76
2022/04/15 05:50:42;;;;;;;0.00;0.00;;;;;;;13.52;61.24;102838.50;5009102;28;20034;-77
2022/04/15 05:53:10;;;;;;;0.10;0.10;;;;;;;13.52;61.28;102833.16;5019055;28;20050;-76
2022/04/15 05:55:36;;;;;;;0.00;0.00;;;;;;;13.52;61.85;102844.72;5006545;28;20027;-75
2022/04/15 05:58:03;;;;;;;0.00;0.00;;;;;;;13.53;61.37;102856.25;5011945;28;20037;-75
2022/04/15 06:00:29;;;;;;;0.00;0.00;;;;;;;13.53;61.32;102849.16;5022747;28;20026;-75
2022/04/15 06:02:55;;;;;;;0.10;0.10;;;;;;;13.49;61.49;102850.03;5034937;28;20489;-76
2022/04/15 06:05:24;;;;;;;0.30;0.30;;;;;;;13.51;61.23;102842.94;5017761;28;20430;-75
2022/04/15 06:07:51;;;;;;;0.00;0.00;;;;;;;13.47;61.31;102849.16;5009497;28;20030;-75
2022/04/15 06:10:17;;;;;;;0.10;0.10;;;;;;;13.45;61.13;102848.28;5006732;28;20492;-75
2022/04/15 06:13:02;;;;;;;0.20;0.20;;;;;;;13.46;61.22;102852.72;5012101;28;20108;-75
2022/04/15 06:15:31;;;;;;;0.55;0.55;;;;;;;13.48;60.95;102863.34;5012370;28;20635;-75
2022/04/15 06:17:58;;;;;;;0.10;0.10;;;;;;;13.50;61.31;102866.91;5011752;28;20400;-75
2022/04/15 06:20:24;;;;;;;0.00;0.00;;;;;;;13.51;61.50;102864.25;5013198;28;20030;-75
2022/04/15 06:22:50;;;;;;;0.17;0.17;;;;;;;13.53;61.62;102869.56;5012096;28;20040;-75
2022/04/15 06:25:16;;;;;;;0.20;0.20;;;;;;;13.48;60.95;102866.91;5010138;28;20042;-75
2022/04/15 06:27:43;;;;;;;0.00;0.00;;;;;;;13.47;61.11;102873.13;5010160;28;20712;-74
2022/04/15 06:30:09;;;;;;;0.10;0.10;;;;;;;13.45;61.27;102871.38;5011098;28;20583;-75
2022/04/15 06:32:37;;;;;;;0.00;0.00;;;;;;;13.45;60.99;102868.69;5003354;28;20039;-74
2022/04/15 06:35:07;;;;;;;0.00;0.00;;;;;;;13.49;61.13;102871.34;5012193;28;20033;-74
2022/04/15 06:37:33;;;;;;;0.10;0.10;;;;;;;13.49;61.01;102871.34;5012957;28;20025;-75
2022/04/15 06:39:59;;;;;;;0.10;0.10;;;;;;;13.49;60.81;102886.44;5013037;28;20480;-74
2022/04/15 06:42:27;;;;;;;0.10;0.10;;;;;;;13.56;60.85;102883.78;5009620;28;20037;-74
2022/04/15 06:44:54;;;;;;;0.00;0.00;;;;;;;13.59;60.44;102891.78;5012153;28;20026;-74
2022/04/15 06:47:20;;;;;;;0.00;0.00;;;;;;;13.69;60.74;102886.44;5012531;28;20487;-74
2022/04/15 06:49:47;;;;;;;0.05;0.05;;;;;;;13.72;60.27;102886.44;5011528;28;20026;-75
2022/04/15 06:52:15;;;;;;;0.00;0.00;;;;;;;13.63;60.04;102894.44;5011113;28;20153;-75
2022/04/15 06:54:42;;;;;;;0.10;0.10;;;;;;;13.69;59.82;102889.97;5012639;28;20026;-74
2022/04/15 06:57:09;;;;;;;0.10;0.10;;;;;;;13.76;60.03;102898.88;5011476;28;20056;-75
2022/04/15 06:59:36;;;;;;;0.10;0.10;;;;;;;13.93;59.93;102908.63;5012316;28;20018;-74
2022/04/15 07:02:02;;;;;;;0.30;0.30;;;;;;;14.00;59.24;102908.63;5010629;28;20400;-74
2022/04/15 07:04:29;;;;;;;0.00;0.00;;;;;;;14.16;59.26;102908.59;5012822;28;20124;-75
2022/04/15 07:06:55;;;;;;;0.00;0.00;;;;;;;14.19;57.90;102900.59;5012284;28;20543;-75
2022/04/15 07:09:22;;;;;;;0.10;0.10;;;;;;;14.30;58.18;102911.25;5010360;28;20022;-76
2022/04/15 07:11:48;;;;;;;0.00;0.00;;;;;;;14.40;58.01;102910.31;5009846;28;20108;-75
2022/04/15 07:14:14;;;;;;;0.00;0.00;;;;;;;14.43;57.66;102915.66;5010492;28;20439;-75
2022/04/15 07:16:40;;;;;;;0.10;0.10;;;;;;;14.47;57.33;102909.41;5011923;28;20038;-76
2022/04/15 07:19:07;;;;;;;2.97;1.05;;;;;;;14.56;57.51;102908.50;5011930;28;20029;-75
2022/04/15 07:21:35;;;;;;;0.10;0.10;;;;;;;14.62;57.21;102911.13;5013682;28;20022;-75
2022/04/15 07:24:02;;;;;;;0.05;0.05;;;;;;;14.65;56.86;102910.25;5026084;28;20034;-75
2022/04/15 07:26:28;;;;;;;0.00;0.00;;;;;;;14.79;57.19;102923.53;5022652;28;20056;-75
2022/04/15 07:28:55;;;;;;;0.20;0.20;;;;;;;14.87;57.14;102917.28;5010988;28;20044;-75
2022/04/15 07:31:21;;;;;;;0.10;0.10;;;;;;;14.99;57.09;102919.00;5011141;28;20135;-76
2022/04/15 07:33:47;;;;;;;1.20;0.52;;;;;;;15.00;56.05;102919.88;5011929;28;20025;-75
2022/04/15 07:36:53;;;;;;;0.10;0.10;;;;;;;15.07;55.82;102918.09;5011563;28;20065;-75
2022/04/15 07:39:01;;;;;;;0.00;0.00;;;;;;;15.08;55.80;102925.19;5010985;28;20496;-75
2022/04/15 07:41:27;;;;;;;0.00;0.00;;;;;;;15.10;55.80;102921.59;5009420;28;21003;-75
2022/04/15 07:43:54;;;;;;;0.10;0.10;;;;;;;15.15;55.06;102926.91;5007446;28;20061;-75
2022/04/15 07:46:20;;;;;;;0.00;0.00;;;;;;;15.25;54.83;102925.09;4993377;28;20076;-75
2022/04/15 07:48:46;;;;;;;0.20;0.20;;;;;;;15.31;55.03;102923.25;5002425;28;20167;-75
2022/04/15 07:51:12;;;;;;;0.00;0.00;;;;;;;15.44;55.07;102929.41;4999118;28;20116;-75
2022/04/15 07:53:38;;;;;;;0.03;0.03;;;;;;;15.61;54.54;102920.38;5001221;28;20087;-75
2022/04/15 07:56:04;;;;;;;0.73;0.73;;;;;;;15.70;53.91;102917.63;5010078;28;20061;-75
2022/04/15 07:58:31;;;;;;;1.33;1.30;;;;;;;15.81;53.86;102912.19;5009936;28;20030;-75
2022/04/15 08:01:00;;;;;;;0.00;0.00;;;;;;;15.93;53.15;102920.13;5010639;28;20395;-76
2022/04/15 08:03:26;;;;;;;2.08;1.98;;;;;;;16.01;52.84;102920.06;5013858;28;20036;-77
2022/04/15 08:05:53;;;;;;;0.00;0.00;;;;;;;15.99;53.57;102917.41;5011996;28;20029;-77
2022/04/15 08:08:19;;;;;;;0.00;0.00;;;;;;;16.01;52.12;102920.06;5011573;28;20611;-79
2022/04/15 08:10:45;;;;;;;0.00;0.00;;;;;;;15.98;51.91;102925.44;5010444;28;20065;-76
2022/04/15 08:13:11;;;;;;;0.05;0.05;;;;;;;15.95;52.72;102925.47;5007659;28;20065;-76
2022/04/15 08:15:37;;;;;;;0.00;0.00;;;;;;;15.98;53.17;102926.31;5010829;28;20578;-76
2022/04/15 08:18:03;;;;;;;0.10;0.10;;;;;;;16.04;53.17;102925.41;5011121;28;20201;-76
2022/04/15 08:20:29;;;;;;;0.10;0.10;;;;;;;16.01;52.37;102917.38;5010628;28;20435;-76
2022/04/15 08:22:55;;;;;;;0.10;0.10;;;;;;;15.90;52.79;102927.28;5010100;28;20160;-76
2022/04/15 08:25:22;;;;;;;0.10;0.10;;;;;;;15.89;52.23;102931.75;5010603;28;20048;-77
2022/04/15 08:27:48;;;;;;;0.00;0.00;;;;;;;15.94;52.42;102926.38;5010892;28;20026;-76
2022/04/15 08:30:14;;;;;;;0.98;0.50;;;;;;;16.03;52.99;102934.31;5005723;28;20069;-76
2022/04/15 08:32:40;;;;;;;0.10;0.10;;;;;;;16.09;52.53;102934.25;5006441;28;20064;-76
2022/04/15 08:35:11;;;;;;;0.10;0.10;;;;;;;16.05;52.30;102932.53;5009357;28;20026;-76
2022/04/15 08:37:38;;;;;;;0.17;0.17;;;;;;;16.11;51.81;102939.56;5009526;28;20112;-76
2022/04/15 08:40:05;;;;;;;0.10;0.10;;;;;;;16.17;51.67;102940.41;5006449;28;20030;-77
2022/04/15 08:42:31;;;;;;;0.00;0.00;;;;;;;16.25;51.24;102939.44;5010627;28;20034;-77
2022/04/15 08:44:57;;;;;;;0.10;0.10;;;;;;;16.26;51.82;102946.56;5028997;28;20033;-76
2022/04/15 08:47:24;;;;;;;0.00;0.00;;;;;;;16.37;51.82;102944.66;5029763;28;20093;-77
2022/04/15 08:49:51;;;;;;;0.00;0.00;;;;;;;16.38;50.70;102949.09;5009841;28;20061;-77
2022/04/15 08:52:18;;;;;;;0.10;0.10;;;;;;;16.43;51.55;102941.03;5009972;28;20034;-77
2022/04/15 08:54:45;;;;;;;0.00;0.00;;;;;;;16.44;50.84;102946.38;5009850;28;20041;-76
2022/04/15 08:57:11;;;;;;;0.00;0.00;;;;;;;16.44;50.71;102953.53;5009383;28;20030;-77
2022/04/15 08:59:40;;;;;;;0.45;0.45;;;;;;;16.49;50.77;102949.00;5010270;28;20496;-76
2022/04/15 09:02:07;;;;;;;0.10;0.10;;;;;;;16.53;50.32;102949.84;5010062;28;20455;-76
2022/04/15 09:04:33;;;;;;;0.00;0.00;;;;;;;16.70;51.50;102955.00;5010284;28;20022;-77
2022/04/15 09:07:01;;;;;;;1.10;0.88;;;;;;;16.87;50.54;102960.16;5008872;28;20056;-76
2022/04/15 09:09:29;;;;;;;0.10;0.10;;;;;;;17.04;50.59;102955.50;5009462;28;20498;-77
2022/04/15 09:11:57;;;;;;;0.00;0.00;;;;;;;17.16;48.65;102956.22;5013801;28;20044;-76
2022/04/15 09:14:24;;;;;;;0.10;0.10;;;;;;;17.27;48.89;102956.97;5014464;28;20034;-76
2022/04/15 09:16:50;;;;;;;0.10;0.10;;;;;;;17.34;48.15;102955.09;5014330;28;20081;-77
2022/04/15 09:19:19;;;;;;;0.20;0.20;;;;;;;17.38;48.09;102960.34;5013922;28;20108;-77
2022/04/15 09:22:00;;;;;;;0.73;0.73;;;;;;;17.48;48.19;102950.38;5012879;28;20613;-77
2022/04/15 09:24:31;;;;;;;0.08;0.08;;;;;;;17.41;47.99;102960.34;5012946;28;20025;-77
2022/04/15 09:27:05;;;;;;;0.00;0.00;;;;;;;17.44;48.15;102965.63;5014495;28;20038;-77
2022/04/15 09:29:38;;;;;;;0.00;0.00;;;;;;;17.45;48.39;102972.75;5012486;28;20028;-76
2022/04/15 09:32:14;;;;;;;0.10;0.10;;;;;;;17.42;47.85;102963.88;5072499;22;20532;-82
2022/04/15 09:34:57;;;;;;;0.10;0.10;;;;;;;17.50;48.40;102971.84;5037625;28;20493;-82
2022/04/15 09:37:27;;;;;;;0.75;0.75;;;;;;;17.51;47.70;102970.91;5020100;28;20076;-83
2022/04/15 09:42:51;;;;;;;0.00;0.00;;;;;;;17.77;47.35;102976.75;5107534;27;20394;-77
2022/04/15 09:47:59;;;;;;;0.10;0.10;;;;;;;17.86;46.75;102980.19;5067835;28;20409;-77
2022/04/15 09:53:13;;;;;;;0.95;0.95;;;;;;;17.72;47.48;102984.00;5106474;27;20362;-76
2022/04/15 09:55:41;;;;;;;0.10;0.10;;;;;;;17.62;47.30;102987.72;5081408;28;20115;-77
2022/04/15 09:58:13;;;;;;;0.00;0.00;;;;;;;17.63;47.32;102978.75;5087999;28;20040;-77
2022/04/15 10:00:41;;;;;;;;;;;;;;;17.79;46.75;102984.75;5080815;28;20158;-77
2022/04/15 10:03:11;;;;;;;0.10;0.10;;;;;;;17.73;46.99;102980.41;5070644;28;19920;-76
2022/04/15 10:05:38;;;;;;;0.00;0.00;;;;;;;17.72;46.36;102981.31;5080576;28;20032;-76
2022/04/15 10:08:05;;;;;;;0.10;0.10;;;;;;;17.79;47.13;102980.31;5068215;28;20131;-76
2022/04/15 10:10:32;;;;;;;0.00;0.00;;;;;;;17.85;46.56;102989.16;5073350;28;20051;-77
2022/04/15 10:13:03;;;;;;;1.65;1.00;;;;;;;17.76;45.73;102982.16;5098355;28;20032;-77
2022/04/15 10:15:31;;;;;;;0.00;0.00;;;;;;;17.85;46.98;102981.97;5090012;28;20021;-76
2022/04/15 10:18:00;;;;;;;0.00;0.00;;;;;;;17.91;46.81;102983.69;5088265;28;20093;-77
2022/04/15 10:20:28;;;;;;;0.00;0.00;;;;;;;17.89;46.88;102980.13;5087688;28;20031;-77
2022/04/15 10:23:00;;;;;;;0.00;0.00;;;;;;;17.86;46.40;102975.72;5086716;28;20115;-77
2022/04/15 10:25:27;;;;;;;0.00;0.00;;;;;;;17.87;46.33;102979.25;5085448;28;20032;-76
2022/04/15 10:28:03;;;;;;;0.17;0.17;;;;;;;17.93;46.58;102971.13;5082740;28;20137;-76
2022/04/15 10:30:29;;;;;;;0.00;0.00;;;;;;;18.04;46.86;102969.16;5098072;28;20040;-81
2022/04/15 10:32:59;;;;;;;0.05;0.05;;;;;;;18.22;46.05;102967.09;5093338;28;20443;-77
2022/04/15 10:35:28;;;;;;;0.10;0.10;;;;;;;18.30;47.12;102975.00;5091507;28;20085;-77
2022/04/15 10:37:58;;;;;;;0.00;0.00;;;;;;;18.37;46.05;102972.16;5094511;28;20067;-76
2022/04/15 10:40:30;;;;;;;0.10;0.10;;;;;;;18.36;45.23;102970.38;5092188;28;20539;-77
2022/04/15 10:43:06;;;;;;;0.10;0.10;;;;;;;18.40;45.97;102965.84;5083819;28;20506;-77
2022/04/15 10:45:37;;;;;;;0.00;0.00;;;;;;;18.41;46.18;102957.75;5103213;28;20020;-77
2022/04/15 10:48:04;;;;;;;0.00;0.00;;;;;;;18.43;45.64;102955.06;5114943;28;20092;-77
2022/04/15 10:50:33;;;;;;;0.00;0.00;;;;;;;18.56;45.61;102958.38;5116368;28;20043;-77
2022/04/15 10:53:29;;;;;;;0.00;0.00;;;;;;;18.69;45.33;102961.69;5117131;28;20055;-75
2022/04/15 10:56:07;;;;;;;0.00;0.00;;;;;;;18.53;44.72;102958.44;5108704;28;20027;-76
2022/04/15 11:01:13;;;;;;;2.00;0.63;;;;;;;18.42;45.84;102959.53;5093440;28;20040;-77
2022/04/15 11:01:31;;;;;;;0.00;0.00;;;;;;;18.39;45.20;102966.75;5094127;28;20424;-78
2022/04/15 11:04:04;;;;;;;0.00;0.00;;;;;;;18.49;45.57;102959.41;5100539;28;20031;-76
2022/04/15 11:06:30;;;;;;;0.00;0.00;;;;;;;18.38;45.60;102963.19;5101888;28;20123;-76
2022/04/15 11:08:58;;;;;;;0.00;0.00;;;;;;;18.28;45.14;102964.31;5103642;28;20024;-77
2022/04/15 11:11:50;;;;;;;0.10;0.10;;;;;;;18.47;45.67;102964.81;5102510;28;20496;-77
2022/04/15 11:14:16;;;;;;;0.03;0.03;;;;;;;18.52;44.98;102965.63;5079691;28;20146;-76
2022/04/15 11:16:48;;;;;;;0.00;0.00;;;;;;;18.68;45.33;102959.91;5075719;28;20033;-76
2022/04/15 11:19:23;;;;;;;0.00;0.00;;;;;;;18.84;45.67;102955.13;5077479;28;20114;-77
2022/04/15 11:21:50;;;;;;;0.08;0.08;;;;;;;18.92;45.14;102951.38;5073053;28;20020;-78
2022/04/15 11:24:23;;;;;;;0.05;0.05;;;;;;;19.05;45.16;102951.13;5080857;28;20112;-77
2022/04/15 11:26:55;;;;;;;0.00;0.00;;;;;;;19.09;44.82;102958.22;5082044;28;20048;-77
2022/04/15 11:29:26;;;;;;;;;;;;;;;19.15;44.61;102959.88;5075102;28;20075;-77
2022/04/15 11:31:58;;;;;;;0.00;0.00;;;;;;;19.02;44.91;102953.88;5073999;28;20374;-78
2022/04/15 11:34:24;;;;;;;0.08;0.08;;;;;;;19.06;44.86;102960.97;5069172;28;20017;-77
2022/04/15 11:36:59;;;;;;;0.00;0.00;;;;;;;19.11;44.26;102959.03;5070982;28;20514;-77
2022/04/15 11:39:25;;;;;;;0.00;0.00;;;;;;;19.23;44.62;102957.91;5069934;28;20036;-76